Time;durP1;ratioP1;P1;durP2;ratioP2;P2;SDS_P1;SDS_P2;PMS_P1;PMS_P2;Temp;Humidity;BMP_temperature;BMP_pressure;BME280_temperature;BME280_humidity;BME280_pressure;Samples;Min_cycle;Max_cycle;Signal;HPM_P1;HPM_P2
2022/05/23 00:02:12;;;;;;;5.78;3.50;;;;;;;-145.52;100.00;57022.44;5077944;28;20373;-68
2022/05/23 00:04:37;;;;;;;5.20;3.58;;;;;;;-145.52;100.00;57022.44;5075698;28;20043;-69
2022/05/23 00:07:08;;;;;;;6.53;3.95;;;;;;;-145.52;100.00;57022.44;5073400;28;20123;-69
2022/05/23 00:09:34;;;;;;;7.50;4.07;;;;;;;-145.52;100.00;57022.44;5075658;28;20052;-69
2022/05/23 00:11:59;;;;;;;7.05;4.25;;;;;;;-145.52;100.00;57022.44;5089675;28;20036;-69
2022/05/23 00:14:25;;;;;;;6.80;4.28;;;;;;;-145.52;100.00;57022.44;5089389;28;20047;-69
2022/05/23 00:16:51;;;;;;;6.68;4.22;;;;;;;-145.52;100.00;57022.44;5078937;28;20426;-67
2022/05/23 00:19:19;;;;;;;5.82;3.90;;;;;;;-145.52;100.00;57022.44;5085853;28;20036;-69
2022/05/23 00:21:47;;;;;;;9.75;4.80;;;;;;;-145.52;100.00;57022.44;5095620;28;20032;-69
2022/05/23 00:24:14;;;;;;;4.88;3.40;;;;;;;-145.52;100.00;57022.44;5093424;28;20036;-69
2022/05/23 00:26:42;;;;;;;6.18;3.88;;;;;;;-145.52;100.00;57022.44;5087028;28;20029;-68
2022/05/23 00:29:08;;;;;;;5.78;3.38;;;;;;;-145.52;100.00;57022.44;5082390;28;20816;-68
2022/05/23 00:31:34;;;;;;;5.10;3.53;;;;;;;-145.52;100.00;57022.44;5056282;28;20058;-68
2022/05/23 00:36:44;;;;;;;5.00;3.45;;;;;;;-145.52;100.00;57022.44;5061554;28;20047;-69
2022/05/23 00:39:09;;;;;;;5.25;3.65;;;;;;;-145.52;100.00;57022.44;5072870;28;20040;-70
2022/05/23 00:44:33;;;;;;;6.75;3.97;;;;;;;-145.52;100.00;57022.44;5084893;28;20511;-69
2022/05/23 00:47:03;;;;;;;5.63;3.90;;;;;;;-145.52;100.00;57022.44;5080693;28;20040;-68
2022/05/23 00:49:34;;;;;;;8.57;4.55;;;;;;;-145.52;100.00;57022.44;5085996;28;20036;-69
2022/05/23 00:52:04;;;;;;;9.68;4.90;;;;;;;-145.52;100.00;57022.44;5076530;28;20478;-69
2022/05/23 00:54:35;;;;;;;7.43;3.97;;;;;;;-145.52;100.00;57022.44;5069631;28;20475;-69
2022/05/23 00:57:01;;;;;;;6.75;3.75;;;;;;;-145.52;100.00;57022.44;5071828;28;20464;-68
2022/05/23 00:59:30;;;;;;;6.18;4.10;;;;;;;-145.52;100.00;57022.44;5084086;28;20029;-68
2022/05/23 01:01:57;;;;;;;6.05;3.92;;;;;;;-145.52;100.00;57022.44;5071525;28;20050;-70
2022/05/23 01:04:23;;;;;;;6.82;4.05;;;;;;;-145.52;100.00;57022.44;5074094;28;20024;-69
2022/05/23 01:06:48;;;;;;;5.63;3.80;;;;;;;-145.52;100.00;57022.44;5072625;28;20039;-67
2022/05/23 01:09:14;;;;;;;5.22;2.97;;;;;;;-145.52;100.00;57022.44;5076066;28;20044;-68
2022/05/23 01:11:40;;;;;;;7.53;4.40;;;;;;;-145.52;100.00;57022.44;5073945;28;20033;-68
2022/05/23 01:14:06;;;;;;;4.85;3.40;;;;;;;-145.52;100.00;57022.44;5069326;28;20041;-68
2022/05/23 01:16:32;;;;;;;4.75;3.30;;;;;;;-145.52;100.00;57022.44;5073009;28;20078;-68
2022/05/23 01:18:58;;;;;;;5.53;3.40;;;;;;;-145.52;100.00;57022.44;5074898;28;20036;-69
2022/05/23 01:21:31;;;;;;;5.03;3.33;;;;;;;-145.52;100.00;57022.44;5074137;28;20028;-69
2022/05/23 01:24:24;;;;;;;6.45;3.78;;;;;;;-145.52;100.00;57022.44;5075664;28;20040;-68
2022/05/23 01:26:53;;;;;;;4.93;3.22;;;;;;;-145.52;100.00;57022.44;5075012;28;20491;-68
2022/05/23 01:29:19;;;;;;;6.07;3.83;;;;;;;-145.52;100.00;57022.44;5071578;28;20472;-69
2022/05/23 01:31:44;;;;;;;6.85;3.58;;;;;;;-145.52;100.00;57022.44;5074101;28;20036;-69
2022/05/23 01:34:10;;;;;;;7.43;3.88;;;;;;;-145.52;100.00;57022.44;5079250;28;20029;-67
2022/05/23 01:36:35;;;;;;;7.05;3.75;;;;;;;-145.52;100.00;57022.44;5075708;28;20117;-68
2022/05/23 01:39:01;;;;;;;6.32;4.13;;;;;;;-145.52;100.00;57022.44;5075433;28;20039;-65
2022/05/23 01:41:27;;;;;;;6.78;4.13;;;;;;;-145.52;100.00;57022.44;5062319;28;20055;-68
2022/05/23 01:43:53;;;;;;;7.10;4.00;;;;;;;-145.52;100.00;57022.44;5073365;28;20036;-67
2022/05/23 01:46:19;;;;;;;5.43;3.72;;;;;;;-145.52;100.00;57022.44;5070991;28;20035;-69
2022/05/23 01:48:45;;;;;;;5.22;3.83;;;;;;;-145.52;100.00;57022.44;5053335;28;20029;-68
2022/05/23 01:51:10;;;;;;;5.65;4.07;;;;;;;-145.52;100.00;57022.44;5075499;28;20040;-67
2022/05/23 01:53:36;;;;;;;4.78;3.45;;;;;;;-145.52;100.00;57022.44;5073519;28;20033;-68
2022/05/23 01:56:03;;;;;;;4.65;3.38;;;;;;;-145.52;100.00;57022.44;5071887;28;20036;-68
2022/05/23 02:01:15;;;;;;;6.15;4.05;;;;;;;-145.52;100.00;57022.44;5071926;28;20384;-67
2022/05/23 02:03:45;;;;;;;6.57;4.03;;;;;;;-145.52;100.00;57022.44;5077215;28;20098;-68
2022/05/23 02:06:11;;;;;;;6.28;4.30;;;;;;;-145.52;100.00;57022.44;5071195;28;20050;-67
2022/05/23 02:08:38;;;;;;;6.55;3.50;;;;;;;-145.52;100.00;57022.44;5057693;28;20044;-68
2022/05/23 02:11:06;;;;;;;6.40;3.92;;;;;;;-145.52;100.00;57022.44;5072425;28;20044;-67
2022/05/23 02:13:42;;;;;;;4.95;3.58;;;;;;;-145.52;100.00;57022.44;5072339;28;20115;-68
2022/05/23 02:16:08;;;;;;;3.70;2.97;;;;;;;-145.52;100.00;57022.44;5072354;28;20511;-68
2022/05/23 02:18:33;;;;;;;4.95;2.97;;;;;;;-145.52;100.00;57022.44;5071357;28;20037;-68
2022/05/23 02:20:59;;;;;;;6.22;3.42;;;;;;;-145.52;100.00;57022.44;5071970;28;20120;-68
2022/05/23 02:23:24;;;;;;;4.15;3.08;;;;;;;-145.52;100.00;57022.44;5074807;28;20472;-68
2022/05/23 02:25:51;;;;;;;5.20;3.60;;;;;;;-145.52;100.00;57022.44;5072044;28;20060;-68
2022/05/23 02:28:18;;;;;;;4.10;3.08;;;;;;;-145.52;100.00;57022.44;5073200;28;20082;-69
2022/05/23 02:30:43;;;;;;;4.65;3.40;;;;;;;-145.52;100.00;57022.44;5072748;28;20032;-68
2022/05/23 02:33:09;;;;;;;6.38;4.13;;;;;;;-145.52;100.00;57022.44;5079325;28;20110;-70
2022/05/23 02:35:34;;;;;;;6.28;3.95;;;;;;;-145.52;100.00;57022.44;5072890;28;20039;-69
2022/05/23 02:37:59;;;;;;;7.00;3.85;;;;;;;-145.52;100.00;57022.44;5073195;28;20043;-68
2022/05/23 02:40:25;;;;;;;5.18;3.63;;;;;;;-145.52;100.00;57022.44;5039214;28;20067;-69
2022/05/23 02:42:51;;;;;;;6.63;4.20;;;;;;;-145.52;100.00;57022.44;5073284;28;20460;-70
2022/05/23 02:45:16;;;;;;;8.70;4.32;;;;;;;-145.52;100.00;57022.44;5074003;28;20036;-67
2022/05/23 02:47:43;;;;;;;6.90;4.10;;;;;;;-145.52;100.00;57022.44;5077893;28;20033;-69
2022/05/23 02:50:09;;;;;;;6.25;4.13;;;;;;;-145.52;100.00;57022.44;5071884;28;20536;-68
2022/05/23 02:52:36;;;;;;;6.95;3.88;;;;;;;-145.52;100.00;57022.44;5044537;28;20029;-67
2022/05/23 02:55:01;;;;;;;5.80;3.58;;;;;;;-145.52;100.00;57022.44;5071149;28;20037;-67
2022/05/23 02:57:27;;;;;;;5.63;3.72;;;;;;;-145.52;100.00;57022.44;5076180;28;20032;-68
2022/05/23 02:59:52;;;;;;;5.55;3.42;;;;;;;-145.52;100.00;57022.44;5074377;28;20044;-66
2022/05/23 03:05:03;;;;;;;5.32;3.63;;;;;;;-145.52;100.00;57022.44;5074451;28;20111;-68
2022/05/23 03:07:28;;;;;;;7.38;4.05;;;;;;;-145.52;100.00;57022.44;5072555;28;20021;-67
2022/05/23 03:09:53;;;;;;;6.60;3.92;;;;;;;-145.52;100.00;57022.44;5071386;28;20059;-67
2022/05/23 03:12:19;;;;;;;7.15;4.00;;;;;;;-145.52;100.00;57022.44;5070661;28;20040;-67
2022/05/23 03:14:44;;;;;;;7.47;4.45;;;;;;;-145.52;100.00;57022.44;5071991;28;20079;-66
2022/05/23 03:17:10;;;;;;;5.50;4.18;;;;;;;-145.52;100.00;57022.44;5073169;28;20059;-66
2022/05/23 03:19:39;;;;;;;6.05;4.10;;;;;;;-145.52;100.00;57022.44;5078410;28;20035;-67
2022/05/23 03:27:33;;;;;;;7.10;4.18;;;;;;;-145.52;100.00;57022.44;5078462;28;20067;-67
2022/05/23 03:29:59;;;;;;;7.28;4.15;;;;;;;-145.52;100.00;57022.44;5072375;28;20059;-66
2022/05/23 03:32:25;;;;;;;6.55;4.15;;;;;;;-145.52;100.00;57022.44;5038118;28;20173;-66
2022/05/23 03:34:50;;;;;;;5.80;4.30;;;;;;;-145.52;100.00;57022.44;5074499;28;20036;-67
2022/05/23 03:37:16;;;;;;;6.78;4.70;;;;;;;-145.52;100.00;57022.44;5071728;28;20046;-67
2022/05/23 03:39:41;;;;;;;6.32;3.88;;;;;;;-145.52;100.00;57022.44;5073040;28;20400;-68
2022/05/23 03:42:07;;;;;;;5.90;3.67;;;;;;;-145.52;100.00;57022.44;5075467;28;20047;-67
2022/05/23 03:44:34;;;;;;;7.22;4.28;;;;;;;-145.52;100.00;57022.44;5072921;28;20036;-67
2022/05/23 03:46:59;;;;;;;6.30;4.15;;;;;;;-145.52;100.00;57022.44;5072827;28;20087;-68
2022/05/23 03:49:24;;;;;;;7.30;4.28;;;;;;;-145.52;100.00;57022.44;5072356;28;20392;-68
2022/05/23 03:51:50;;;;;;;5.72;3.78;;;;;;;-145.52;100.00;57022.44;5069089;28;20115;-66
2022/05/23 03:54:15;;;;;;;7.30;4.28;;;;;;;-145.52;100.00;57022.44;5070938;28;20063;-66
2022/05/23 03:56:41;;;;;;;5.38;4.03;;;;;;;-145.52;100.00;57022.44;5072731;28;20492;-68
2022/05/23 03:59:06;;;;;;;5.68;4.05;;;;;;;-145.52;100.00;57022.44;5070326;28;20028;-66
2022/05/23 04:01:32;;;;;;;6.00;4.25;;;;;;;-145.52;100.00;57022.44;5073836;28;20468;-66
2022/05/23 04:03:58;;;;;;;4.60;3.28;;;;;;;-145.52;100.00;57022.44;5071083;28;20036;-67
2022/05/23 04:06:24;;;;;;;7.82;4.35;;;;;;;-145.52;100.00;57022.44;5069343;28;20032;-67
2022/05/23 04:08:50;;;;;;;5.88;4.05;;;;;;;-145.52;100.00;57022.44;5076886;28;20429;-67
2022/05/23 04:11:15;;;;;;;8.27;4.20;;;;;;;-145.52;100.00;57022.44;5069082;28;20449;-66
2022/05/23 04:13:40;;;;;;;5.30;3.53;;;;;;;-145.52;100.00;57022.44;5070156;28;20089;-66
2022/05/23 04:16:06;;;;;;;6.65;4.18;;;;;;;-145.52;100.00;57022.44;5072051;28;20049;-66
2022/05/23 04:18:33;;;;;;;6.53;3.90;;;;;;;-145.52;100.00;57022.44;5072333;28;20498;-67
2022/05/23 04:20:59;;;;;;;5.93;4.35;;;;;;;-145.52;100.00;57022.44;5069404;28;20048;-66
2022/05/23 04:23:25;;;;;;;6.53;4.30;;;;;;;-145.52;100.00;57022.44;5070644;28;20170;-67
2022/05/23 04:25:51;;;;;;;6.78;4.85;;;;;;;-145.52;100.00;57022.44;5071742;28;20036;-67
2022/05/23 04:28:18;;;;;;;6.40;4.13;;;;;;;-145.52;100.00;57022.44;5072015;28;20055;-66
2022/05/23 04:30:45;;;;;;;6.18;4.32;;;;;;;-145.52;100.00;57022.44;5071040;28;20045;-67
2022/05/23 04:35:56;;;;;;;8.20;4.88;;;;;;;-145.52;100.00;57022.44;5073366;28;20089;-67
2022/05/23 04:38:22;;;;;;;8.30;4.60;;;;;;;-145.52;100.00;57022.44;5072450;28;20388;-68
2022/05/23 04:40:47;;;;;;;6.53;4.68;;;;;;;-145.52;100.00;57022.44;5072251;28;20037;-67
2022/05/23 04:43:13;;;;;;;9.95;4.80;;;;;;;-145.52;100.00;57022.44;5070458;28;20024;-69
2022/05/23 04:45:39;;;;;;;7.45;4.45;;;;;;;-145.52;100.00;57022.44;5071694;28;20028;-67
2022/05/23 04:50:49;;;;;;;6.97;3.97;;;;;;;-145.52;100.00;57022.44;5066741;28;20116;-68
2022/05/23 04:53:16;;;;;;;6.63;3.80;;;;;;;-145.52;100.00;57022.44;5076273;28;20103;-68
2022/05/23 04:55:43;;;;;;;4.50;3.45;;;;;;;-145.52;100.00;57022.44;5074824;28;20025;-68
2022/05/23 04:58:10;;;;;;;7.53;4.45;;;;;;;-145.52;100.00;57022.44;5076167;28;20404;-68
2022/05/23 05:00:35;;;;;;;6.63;3.45;;;;;;;-145.52;100.00;57022.44;5074238;28;20035;-67
2022/05/23 05:03:01;;;;;;;3.42;2.65;;;;;;;-145.52;100.00;57022.44;5073966;28;20036;-68
2022/05/23 05:05:28;;;;;;;4.53;3.00;;;;;;;-145.52;100.00;57022.44;5074862;28;20036;-68
2022/05/23 05:07:55;;;;;;;5.35;2.88;;;;;;;-145.52;100.00;57022.44;5073671;28;20082;-72
2022/05/23 05:10:23;;;;;;;3.80;1.98;;;;;;;-145.52;100.00;57022.44;5073338;28;20044;-71
2022/05/23 05:12:49;;;;;;;5.32;2.55;;;;;;;-145.52;100.00;57022.44;5074963;28;20021;-71
2022/05/23 05:15:14;;;;;;;4.70;2.20;;;;;;;-145.52;100.00;57022.44;5075262;28;20489;-72
2022/05/23 05:17:40;;;;;;;5.72;2.72;;;;;;;-145.52;100.00;57022.44;5075001;28;20039;-71
2022/05/23 05:20:08;;;;;;;5.63;3.15;;;;;;;-145.52;100.00;57022.44;5076241;28;20064;-71
2022/05/23 05:22:35;;;;;;;6.32;3.20;;;;;;;-145.52;100.00;57022.44;5074954;28;20032;-71
2022/05/23 05:25:03;;;;;;;6.72;3.35;;;;;;;-145.52;100.00;57022.44;5075650;28;20074;-68
2022/05/23 05:27:29;;;;;;;5.25;3.70;;;;;;;-145.52;100.00;57022.44;5075291;28;20032;-70
2022/05/23 05:29:55;;;;;;;7.55;3.42;;;;;;;-145.52;100.00;57022.44;5074798;28;20045;-70
2022/05/23 05:32:28;;;;;;;5.05;3.42;;;;;;;-145.52;100.00;57022.44;5046821;28;20041;-68
2022/05/23 05:34:59;;;;;;;4.28;2.90;;;;;;;-145.52;100.00;57022.44;5073024;28;21452;-70
2022/05/23 05:37:43;;;;;;;6.55;3.67;;;;;;;-145.52;100.00;57022.44;5075356;28;20091;-70
2022/05/23 05:40:16;;;;;;;5.18;3.30;;;;;;;-145.52;100.00;57022.44;5074372;28;20032;-70
2022/05/23 05:42:47;;;;;;;4.10;2.40;;;;;;;-145.52;100.00;57022.44;5072781;28;20025;-71
2022/05/23 05:45:24;;;;;;;5.50;2.53;;;;;;;-145.52;100.00;57022.44;5073275;28;20035;-71
2022/05/23 05:47:50;;;;;;;4.93;3.08;;;;;;;-145.52;100.00;57022.44;5073509;28;20060;-72
2022/05/23 05:50:24;;;;;;;3.72;2.70;;;;;;;-145.52;100.00;57022.44;5074758;28;20032;-71
2022/05/23 05:52:51;;;;;;;3.88;2.53;;;;;;;-145.52;100.00;57022.44;5074090;28;20498;-70
2022/05/23 05:55:17;;;;;;;2.95;2.60;;;;;;;-145.52;100.00;57022.44;5073324;28;20369;-69
2022/05/23 05:57:43;;;;;;;4.60;2.65;;;;;;;-145.52;100.00;57022.44;5073196;28;20103;-71
2022/05/23 06:00:09;;;;;;;4.38;2.20;;;;;;;-145.52;100.00;57022.44;5073894;28;20037;-70
2022/05/23 06:02:34;;;;;;;4.55;2.33;;;;;;;-145.52;100.00;57022.44;5073077;28;20033;-71
2022/05/23 06:05:00;;;;;;;4.45;2.17;;;;;;;-145.52;100.00;57022.44;5074431;28;20056;-71
2022/05/23 06:12:59;;;;;;;4.80;1.90;;;;;;;-145.52;100.00;57022.44;5073977;28;20511;-71
2022/05/23 06:15:25;;;;;;;3.03;1.85;;;;;;;-145.52;100.00;57022.44;5071765;28;20064;-70
2022/05/23 06:18:02;;;;;;;2.65;1.70;;;;;;;-145.52;100.00;57022.44;5074226;28;20392;-67
2022/05/23 06:20:27;;;;;;;3.65;2.00;;;;;;;-145.52;100.00;57022.44;5046508;28;20044;-69
2022/05/23 06:22:53;;;;;;;3.88;1.95;;;;;;;-145.52;100.00;57022.44;5067604;28;20032;-65
2022/05/23 06:25:19;;;;;;;3.08;1.73;;;;;;;-145.52;100.00;57022.44;5060770;28;20154;-69
2022/05/23 06:27:44;;;;;;;4.15;1.80;;;;;;;-145.52;100.00;57022.44;5058644;28;20037;-69
2022/05/23 06:30:13;;;;;;;2.97;2.00;;;;;;;-145.52;100.00;57022.44;5021752;28;20047;-69
2022/05/23 06:32:38;;;;;;;4.07;1.90;;;;;;;-145.52;100.00;57022.44;5057346;28;20290;-68
2022/05/23 06:35:07;;;;;;;4.25;2.85;;;;;;;-145.52;100.00;57022.44;5055492;28;20554;-68
2022/05/23 06:37:38;;;;;;;4.28;2.10;;;;;;;-145.52;100.00;57022.44;5054363;28;20139;-67
2022/05/23 06:40:05;;;;;;;5.75;3.08;;;;;;;-145.52;100.00;57022.44;5066254;28;20439;-68
2022/05/23 06:42:32;;;;;;;6.93;2.97;;;;;;;-145.52;100.00;57022.44;5059262;28;20122;-69
2022/05/23 06:44:58;;;;;;;4.03;2.13;;;;;;;-145.52;100.00;57022.44;5059178;28;20086;-69
2022/05/23 06:47:24;;;;;;;3.80;2.10;;;;;;;-145.52;100.00;57022.44;5069418;28;20032;-70
2022/05/23 06:49:50;;;;;;;7.93;2.30;;;;;;;-145.52;100.00;57022.44;5071370;28;20449;-69
2022/05/23 06:52:15;;;;;;;3.10;1.60;;;;;;;-145.52;100.00;57022.44;5071630;28;20052;-69
2022/05/23 06:54:41;;;;;;;4.07;1.63;;;;;;;-145.52;100.00;57022.44;5072470;28;20036;-69
2022/05/23 06:57:07;;;;;;;4.20;1.98;;;;;;;-145.52;100.00;57022.44;5072755;28;20045;-68
2022/05/23 06:59:33;;;;;;;5.40;2.17;;;;;;;-145.52;100.00;57022.44;5070920;28;20085;-68
2022/05/23 07:01:59;;;;;;;4.55;1.80;;;;;;;-145.52;100.00;57022.44;5073271;28;20468;-70
2022/05/23 07:04:24;;;;;;;3.15;1.90;;;;;;;-145.52;100.00;57022.44;5071602;28;20047;-69
2022/05/23 07:12:20;;;;;;;6.00;1.83;;;;;;;-145.52;100.00;57022.44;5072348;28;20044;-69
2022/05/23 07:14:47;;;;;;;2.55;1.60;;;;;;;-145.52;100.00;57022.44;5071682;28;20039;-69
2022/05/23 07:17:12;;;;;;;2.30;1.10;;;;;;;-145.52;100.00;57022.44;5071427;28;20098;-69
2022/05/23 07:19:39;;;;;;;1.83;1.38;;;;;;;-145.52;100.00;57022.44;5071707;28;20484;-69
2022/05/23 07:22:05;;;;;;;4.35;1.45;;;;;;;-145.52;100.00;57022.44;5071401;28;20039;-70
2022/05/23 07:24:31;;;;;;;4.38;1.55;;;;;;;-145.52;100.00;57022.44;5065961;28;20109;-69
2022/05/23 07:27:01;;;;;;;3.85;1.75;;;;;;;-145.52;100.00;57022.44;5071171;28;20037;-69
2022/05/23 07:29:28;;;;;;;3.10;2.30;;;;;;;-145.52;100.00;57022.44;5072581;28;20473;-69
2022/05/23 07:31:54;;;;;;;3.58;1.52;;;;;;;-145.52;100.00;57022.44;5072430;28;20039;-68
2022/05/23 07:34:19;;;;;;;2.65;1.40;;;;;;;-145.52;100.00;57022.44;5072207;28;20513;-69
2022/05/23 07:36:47;;;;;;;3.65;1.63;;;;;;;-145.52;100.00;57022.44;5054287;28;20120;-70
2022/05/23 07:39:13;;;;;;;27.40;15.48;;;;;;;-145.52;100.00;57022.44;5071466;28;20040;-69
2022/05/23 07:41:40;;;;;;;9.90;6.93;;;;;;;-145.52;100.00;57022.44;5071004;28;20032;-60
2022/05/23 07:44:08;;;;;;;4.90;3.58;;;;;;;-145.52;100.00;57022.44;5068640;28;20503;-62
2022/05/23 07:46:34;;;;;;;3.15;1.88;;;;;;;-145.52;100.00;57022.44;5068105;28;20032;-60
2022/05/23 07:49:00;;;;;;;4.57;2.17;;;;;;;-145.52;100.00;57022.44;5069018;28;20399;-61
2022/05/23 07:51:29;;;;;;;4.45;1.75;;;;;;;-145.52;100.00;57022.44;5067136;28;20037;-62
2022/05/23 08:02:10;;;;;;;3.15;1.92;;;;;;;-145.52;100.00;57022.44;5069713;28;20138;-61
2022/05/23 08:04:36;;;;;;;5.68;2.20;;;;;;;-145.52;100.00;57022.44;5070707;28;20066;-63
2022/05/23 08:07:01;;;;;;;5.57;2.03;;;;;;;-145.52;100.00;57022.44;5047808;28;20404;-61
2022/05/23 08:09:27;;;;;;;4.70;1.73;;;;;;;-145.52;100.00;57022.44;5048017;28;20123;-62
2022/05/23 08:11:55;;;;;;;2.58;1.50;;;;;;;-145.52;100.00;57022.44;5069406;28;20033;-61
2022/05/23 08:14:22;;;;;;;2.92;1.77;;;;;;;-145.52;100.00;57022.44;5070563;28;20369;-62
2022/05/23 08:16:48;;;;;;;4.40;2.10;;;;;;;-145.52;100.00;57022.44;5070943;28;20599;-61
2022/05/23 08:19:14;;;;;;;4.35;1.65;;;;;;;-145.52;100.00;57022.44;5071541;28;20043;-62
2022/05/23 08:21:46;;;;;;;2.80;1.67;;;;;;;-145.52;100.00;57022.44;5072941;28;20036;-62
2022/05/23 08:24:11;;;;;;;2.90;1.38;;;;;;;-145.52;100.00;57022.44;5074477;28;20097;-64
2022/05/23 08:26:37;;;;;;;2.75;1.40;;;;;;;-145.52;100.00;57022.44;5052286;28;20408;-61
2022/05/23 08:29:02;;;;;;;3.78;2.03;;;;;;;-145.52;100.00;57022.44;5072909;28;20028;-61
2022/05/23 08:31:28;;;;;;;2.28;1.45;;;;;;;-145.52;100.00;57022.44;5072794;28;20500;-62
2022/05/23 08:33:53;;;;;;;2.60;1.48;;;;;;;-145.52;100.00;57022.44;5073832;28;20052;-63
2022/05/23 08:36:19;;;;;;;4.47;2.28;;;;;;;-145.52;100.00;57022.44;5074222;28;20028;-63
2022/05/23 08:38:44;;;;;;;5.55;2.33;;;;;;;-145.52;100.00;57022.44;5073558;28;20032;-63
2022/05/23 08:41:16;;;;;;;2.83;1.90;;;;;;;-145.52;100.00;57022.44;5073061;28;20391;-63
2022/05/23 08:43:47;;;;;;;3.17;2.25;;;;;;;-145.52;100.00;57022.44;5072009;28;20090;-62
2022/05/23 08:46:21;;;;;;;3.22;1.70;;;;;;;-145.52;100.00;57022.44;5073251;28;20079;-64
2022/05/23 08:49:05;;;;;;;5.50;1.40;;;;;;;-145.52;100.00;57022.44;5074413;28;20043;-62
2022/05/23 08:52:16;;;;;;;2.05;1.02;;;;;;;-145.52;100.00;57022.44;5069043;28;20036;-63
2022/05/23 08:55:09;;;;;;;5.03;1.60;;;;;;;-145.52;100.00;57022.44;5068762;28;20037;-63
2022/05/23 08:58:23;;;;;;;6.47;1.73;;;;;;;-145.52;100.00;57022.44;5075039;28;20119;-63
2022/05/23 09:00:55;;;;;;;5.78;1.90;;;;;;;-145.52;100.00;57022.44;5057703;28;20044;-64
2022/05/23 09:03:38;;;;;;;4.05;2.50;;;;;;;-145.52;100.00;57022.44;5074502;28;20037;-63
2022/05/23 09:06:45;;;;;;;3.30;1.60;;;;;;;-145.52;100.00;57022.44;5074005;28;20385;-63
2022/05/23 09:09:19;;;;;;;3.72;1.25;;;;;;;-145.52;100.00;57022.44;5070836;28;20044;-64
2022/05/23 09:12:18;;;;;;;3.10;1.40;;;;;;;-145.52;100.00;57022.44;5072367;28;20119;-64
2022/05/23 09:14:43;;;;;;;4.18;1.60;;;;;;;-145.52;100.00;57022.44;5069150;28;20036;-64
2022/05/23 09:17:32;;;;;;;3.97;1.40;;;;;;;-145.52;100.00;57022.44;5072154;28;20118;-63
2022/05/23 09:20:09;;;;;;;2.97;1.48;;;;;;;-145.52;100.00;57022.44;5072387;28;20040;-64
2022/05/23 09:22:34;;;;;;;2.75;1.20;;;;;;;-145.52;100.00;57022.44;5070113;28;20115;-65
2022/05/23 09:25:05;;;;;;;4.32;1.70;;;;;;;-145.52;100.00;57022.44;5072274;28;20095;-64
2022/05/23 09:27:31;;;;;;;3.20;1.40;;;;;;;-145.52;100.00;57022.44;5065987;28;20127;-63
2022/05/23 09:29:58;;;;;;;4.07;1.40;;;;;;;-145.52;100.00;57022.44;5073520;28;20111;-63
2022/05/23 09:32:29;;;;;;;1.80;1.23;;;;;;;-145.52;100.00;57022.44;5070952;28;20024;-63
2022/05/23 09:34:58;;;;;;;3.92;1.80;;;;;;;-145.52;100.00;57022.44;5070895;28;20056;-63
2022/05/23 09:37:38;;;;;;;4.15;1.60;;;;;;;-145.52;100.00;57022.44;5072232;28;20032;-66
2022/05/23 09:40:06;;;;;;;3.80;1.00;;;;;;;-145.52;100.00;57022.44;5066443;28;20074;-67
2022/05/23 09:48:22;;;;;;;5.78;2.00;;;;;;;-145.52;100.00;57022.44;5070746;28;20170;-66
2022/05/23 09:51:07;;;;;;;2.65;1.67;;;;;;;-145.52;100.00;57022.44;5074083;28;20035;-66
2022/05/23 09:53:53;;;;;;;1.98;1.35;;;;;;;-145.52;100.00;57022.44;5071759;28;20028;-66
2022/05/23 09:56:29;;;;;;;3.40;1.73;;;;;;;-145.52;100.00;57022.44;5068811;28;20094;-66
2022/05/23 09:58:56;;;;;;;3.85;1.85;;;;;;;-145.52;100.00;57022.44;5072909;28;20032;-65
2022/05/23 10:01:27;;;;;;;2.70;1.77;;;;;;;-145.52;100.00;57022.44;5043363;28;20029;-65
2022/05/23 10:03:54;;;;;;;2.45;1.35;;;;;;;-145.52;100.00;57022.44;5074100;28;20082;-66
2022/05/23 10:06:32;;;;;;;3.13;1.30;;;;;;;-145.52;100.00;57022.44;5071999;28;20033;-65
2022/05/23 10:08:58;;;;;;;4.72;1.70;;;;;;;-145.52;100.00;57022.44;5072747;28;20061;-65
2022/05/23 10:11:33;;;;;;;2.90;2.08;;;;;;;-145.52;100.00;57022.44;5069335;28;20119;-66
2022/05/23 10:14:07;;;;;;;2.10;1.50;;;;;;;-145.52;100.00;57022.44;5067615;28;20036;-67
2022/05/23 10:16:51;;;;;;;4.25;1.83;;;;;;;-145.52;100.00;57022.44;5073399;28;20032;-66
2022/05/23 10:19:31;;;;;;;2.67;1.55;;;;;;;-145.52;100.00;57022.44;5069104;28;20021;-65
2022/05/23 10:22:19;;;;;;;1.67;1.30;;;;;;;-145.52;100.00;57022.44;5071775;28;20040;-65
2022/05/23 10:24:59;;;;;;;4.30;1.85;;;;;;;-145.52;100.00;57022.44;5072369;28;20040;-67
2022/05/23 10:27:51;;;;;;;2.63;1.45;;;;;;;-145.52;100.00;57022.44;5070889;28;20029;-66
2022/05/23 10:30:20;;;;;;;1.80;1.40;;;;;;;-145.52;100.00;57022.44;5070013;28;20090;-66
2022/05/23 10:32:51;;;;;;;2.92;1.50;;;;;;;-145.52;100.00;57022.44;5074505;28;20024;-66
2022/05/23 10:35:36;;;;;;;2.70;1.45;;;;;;;-145.52;100.00;57022.44;5072932;28;20090;-66
2022/05/23 10:43:50;;;;;;;2.78;1.30;;;;;;;-145.52;100.00;57022.44;5074032;28;20081;-66
2022/05/23 10:46:16;;;;;;;3.30;1.45;;;;;;;-145.52;100.00;57022.44;5072498;28;20036;-66
2022/05/23 10:48:41;;;;;;;2.05;1.50;;;;;;;-145.52;100.00;57022.44;5072730;28;20042;-66
2022/05/23 10:51:33;;;;;;;3.22;1.58;;;;;;;-145.52;100.00;57022.44;5072423;28;20103;-66
2022/05/23 10:54:04;;;;;;;5.30;1.63;;;;;;;-145.52;100.00;57022.44;5069206;28;20086;-66
2022/05/23 10:56:35;;;;;;;2.40;1.35;;;;;;;-145.52;100.00;57022.44;5073172;28;20531;-66
2022/05/23 10:59:22;;;;;;;2.42;1.30;;;;;;;-145.52;100.00;57022.44;5071843;28;20476;-66
2022/05/23 11:02:13;;;;;;;1.73;1.27;;;;;;;-145.52;100.00;57022.44;5072794;28;20040;-66
2022/05/23 11:04:45;;;;;;;2.03;1.30;;;;;;;-145.52;100.00;57022.44;5073629;28;20029;-68
2022/05/23 11:07:20;;;;;;;2.47;1.30;;;;;;;-145.52;100.00;57022.44;5072486;28;20077;-66
2022/05/23 11:10:02;;;;;;;4.40;1.75;;;;;;;-145.52;100.00;57022.44;5066768;28;20052;-66
2022/05/23 11:12:35;;;;;;;3.72;1.10;;;;;;;-145.52;100.00;57022.44;5072731;28;20095;-66
2022/05/23 11:15:10;;;;;;;1.67;1.20;;;;;;;-145.52;100.00;57022.44;5073105;28;20040;-65
2022/05/23 11:17:48;;;;;;;2.53;1.67;;;;;;;-145.52;100.00;57022.44;5072207;28;20075;-65
2022/05/23 11:20:23;;;;;;;3.03;1.40;;;;;;;-145.52;100.00;57022.44;5071601;28;20115;-66
2022/05/23 11:23:11;;;;;;;2.15;1.13;;;;;;;-145.52;100.00;57022.44;5072087;28;20051;-65
2022/05/23 11:25:43;;;;;;;2.65;1.20;;;;;;;-145.52;100.00;57022.44;5069471;28;20085;-65
2022/05/23 11:34:06;;;;;;;3.05;1.38;;;;;;;-145.52;100.00;57022.44;5072966;28;20040;-67
2022/05/23 11:36:44;;;;;;;4.15;1.65;;;;;;;-145.52;100.00;57022.44;5072508;28;20025;-67
2022/05/23 11:39:42;;;;;;;4.47;1.20;;;;;;;-145.52;100.00;57022.44;5072603;28;20036;-66
2022/05/23 11:42:30;;;;;;;1.42;1.00;;;;;;;-145.52;100.00;57022.44;5073439;28;20029;-66
2022/05/23 11:45:56;;;;;;;2.10;1.10;;;;;;;-145.52;100.00;57022.44;5073255;28;20028;-66
2022/05/23 11:47:52;;;;;;;1.95;1.35;;;;;;;-145.52;100.00;57022.44;5073102;28;20044;-65
2022/05/23 11:50:49;;;;;;;2.65;1.50;;;;;;;-145.52;100.00;57022.44;5071962;28;20033;-65
2022/05/23 11:53:29;;;;;;;1.80;1.10;;;;;;;-145.52;100.00;57022.44;5072713;28;20407;-65
2022/05/23 11:55:55;;;;;;;5.20;1.52;;;;;;;-145.52;100.00;57022.44;5074130;28;20029;-66
2022/05/23 11:58:38;;;;;;;5.70;1.70;;;;;;;-145.52;100.00;57022.44;5077604;28;20025;-65
2022/05/23 12:01:12;;;;;;;2.55;1.50;;;;;;;-145.52;100.00;57022.44;5077090;28;20055;-67
2022/05/23 12:03:50;;;;;;;2.08;1.33;;;;;;;-145.52;100.00;57022.44;5075784;28;20036;-65
2022/05/23 12:06:24;;;;;;;2.25;1.40;;;;;;;-145.52;100.00;57022.44;5075899;28;20024;-65
2022/05/23 12:09:16;;;;;;;3.40;1.85;;;;;;;-145.52;100.00;57022.44;5076873;28;20056;-66
2022/05/23 12:11:44;;;;;;;1.63;1.17;;;;;;;-145.52;100.00;57022.44;5075857;28;20044;-66
2022/05/23 12:14:17;;;;;;;2.40;1.40;;;;;;;-145.52;100.00;57022.44;5075804;28;20055;-66
2022/05/23 12:16:54;;;;;;;;;;;;;;;-145.52;100.00;57022.44;5077644;28;20468;-66
2022/05/23 12:19:23;;;;;;;1.80;1.45;;;;;;;-145.52;100.00;57022.44;5076736;28;20286;-64
2022/05/23 12:21:50;;;;;;;4.07;1.85;;;;;;;-145.52;100.00;57022.44;5076571;28;20123;-65